sensor_id;sensor_type;location;lat;lon;timestamp;P1;durP1;ratioP1;P2;durP2;ratioP2
8458;SDS011;4266;48.816;9.154;2023-12-29T00:02:19;3.70;;;3.40;;
8458;SDS011;4266;48.816;9.154;2023-12-29T00:04:45;3.70;;;3.40;;
8458;SDS011;4266;48.816;9.154;2023-12-29T00:07:11;3.83;;;3.53;;
8458;SDS011;4266;48.816;9.154;2023-12-29T00:09:36;4.43;;;3.50;;
8458;SDS011;4266;48.816;9.154;2023-12-29T00:12:03;3.70;;;3.40;;
8458;SDS011;4266;48.816;9.154;2023-12-29T00:14:29;3.70;;;3.40;;
8458;SDS011;4266;48.816;9.154;2023-12-29T00:16:56;3.77;;;3.50;;
8458;SDS011;4266;48.816;9.154;2023-12-29T00:19:21;3.53;;;3.23;;
8458;SDS011;4266;48.816;9.154;2023-12-29T00:21:47;3.70;;;3.43;;
8458;SDS011;4266;48.816;9.154;2023-12-29T00:24:13;3.70;;;3.40;;
8458;SDS011;4266;48.816;9.154;2023-12-29T00:26:38;3.50;;;3.20;;
8458;SDS011;4266;48.816;9.154;2023-12-29T00:29:04;3.97;;;3.67;;
8458;SDS011;4266;48.816;9.154;2023-12-29T00:31:30;3.87;;;3.57;;
8458;SDS011;4266;48.816;9.154;2023-12-29T00:33:55;4.67;;;3.50;;
8458;SDS011;4266;48.816;9.154;2023-12-29T00:36:21;3.73;;;3.43;;
8458;SDS011;4266;48.816;9.154;2023-12-29T00:38:47;3.63;;;3.33;;
8458;SDS011;4266;48.816;9.154;2023-12-29T00:41:13;4.17;;;3.87;;
8458;SDS011;4266;48.816;9.154;2023-12-29T00:43:38;4.13;;;3.77;;
8458;SDS011;4266;48.816;9.154;2023-12-29T00:46:04;4.10;;;3.63;;
8458;SDS011;4266;48.816;9.154;2023-12-29T00:48:30;3.80;;;3.43;;
8458;SDS011;4266;48.816;9.154;2023-12-29T00:50:56;3.60;;;3.40;;
8458;SDS011;4266;48.816;9.154;2023-12-29T00:53:22;4.60;;;3.33;;
8458;SDS011;4266;48.816;9.154;2023-12-29T00:55:48;3.93;;;3.63;;
8458;SDS011;4266;48.816;9.154;2023-12-29T00:58:13;4.10;;;3.80;;
8458;SDS011;4266;48.816;9.154;2023-12-29T01:00:39;3.73;;;3.47;;
8458;SDS011;4266;48.816;9.154;2023-12-29T01:03:05;4.33;;;3.83;;
8458;SDS011;4266;48.816;9.154;2023-12-29T01:05:30;3.97;;;3.60;;
8458;SDS011;4266;48.816;9.154;2023-12-29T01:07:56;3.73;;;3.40;;
8458;SDS011;4266;48.816;9.154;2023-12-29T01:10:22;3.70;;;3.43;;
8458;SDS011;4266;48.816;9.154;2023-12-29T01:12:48;4.17;;;3.90;;
8458;SDS011;4266;48.816;9.154;2023-12-29T01:15:13;3.90;;;3.60;;
8458;SDS011;4266;48.816;9.154;2023-12-29T01:17:39;4.67;;;3.70;;
8458;SDS011;4266;48.816;9.154;2023-12-29T01:20:05;3.90;;;3.60;;
8458;SDS011;4266;48.816;9.154;2023-12-29T01:22:31;3.80;;;3.50;;
8458;SDS011;4266;48.816;9.154;2023-12-29T01:24:59;4.20;;;3.73;;
8458;SDS011;4266;48.816;9.154;2023-12-29T01:27:24;5.93;;;3.87;;
8458;SDS011;4266;48.816;9.154;2023-12-29T01:29:49;3.73;;;3.50;;
8458;SDS011;4266;48.816;9.154;2023-12-29T01:32:15;4.20;;;3.77;;
8458;SDS011;4266;48.816;9.154;2023-12-29T01:34:41;4.00;;;3.70;;
8458;SDS011;4266;48.816;9.154;2023-12-29T01:37:06;8.03;;;4.03;;
8458;SDS011;4266;48.816;9.154;2023-12-29T01:39:33;4.37;;;4.00;;
8458;SDS011;4266;48.816;9.154;2023-12-29T01:41:58;4.43;;;3.97;;
8458;SDS011;4266;48.816;9.154;2023-12-29T01:44:24;3.97;;;3.67;;
8458;SDS011;4266;48.816;9.154;2023-12-29T01:46:50;4.50;;;4.10;;
8458;SDS011;4266;48.816;9.154;2023-12-29T01:49:16;4.20;;;3.90;;
8458;SDS011;4266;48.816;9.154;2023-12-29T01:51:41;4.13;;;3.83;;
8458;SDS011;4266;48.816;9.154;2023-12-29T01:54:07;4.70;;;4.30;;
8458;SDS011;4266;48.816;9.154;2023-12-29T01:56:33;4.33;;;3.67;;
8458;SDS011;4266;48.816;9.154;2023-12-29T01:59:00;6.17;;;4.43;;
8458;SDS011;4266;48.816;9.154;2023-12-29T02:01:25;4.47;;;4.07;;
8458;SDS011;4266;48.816;9.154;2023-12-29T02:03:51;4.87;;;4.47;;
8458;SDS011;4266;48.816;9.154;2023-12-29T02:06:17;4.70;;;4.30;;
8458;SDS011;4266;48.816;9.154;2023-12-29T02:08:43;4.77;;;4.37;;
8458;SDS011;4266;48.816;9.154;2023-12-29T02:11:09;4.13;;;3.80;;
8458;SDS011;4266;48.816;9.154;2023-12-29T02:13:34;4.37;;;4.07;;
8458;SDS011;4266;48.816;9.154;2023-12-29T02:16:02;6.20;;;3.97;;
8458;SDS011;4266;48.816;9.154;2023-12-29T02:18:26;4.30;;;3.90;;
8458;SDS011;4266;48.816;9.154;2023-12-29T02:20:51;6.27;;;3.93;;
8458;SDS011;4266;48.816;9.154;2023-12-29T02:23:17;4.70;;;4.30;;
8458;SDS011;4266;48.816;9.154;2023-12-29T02:25:43;4.07;;;3.83;;
8458;SDS011;4266;48.816;9.154;2023-12-29T02:28:14;4.13;;;3.83;;
8458;SDS011;4266;48.816;9.154;2023-12-29T02:30:46;4.30;;;3.90;;
8458;SDS011;4266;48.816;9.154;2023-12-29T02:33:10;4.40;;;4.10;;
8458;SDS011;4266;48.816;9.154;2023-12-29T02:35:38;4.37;;;4.00;;
8458;SDS011;4266;48.816;9.154;2023-12-29T02:38:01;4.67;;;4.17;;
8458;SDS011;4266;48.816;9.154;2023-12-29T02:40:28;4.70;;;4.30;;
8458;SDS011;4266;48.816;9.154;2023-12-29T02:42:53;4.73;;;4.33;;
8458;SDS011;4266;48.816;9.154;2023-12-29T02:45:19;4.77;;;4.37;;
8458;SDS011;4266;48.816;9.154;2023-12-29T02:47:45;4.50;;;4.10;;
8458;SDS011;4266;48.816;9.154;2023-12-29T02:50:11;4.73;;;4.33;;
8458;SDS011;4266;48.816;9.154;2023-12-29T02:52:37;4.63;;;4.23;;
8458;SDS011;4266;48.816;9.154;2023-12-29T02:55:02;4.70;;;4.20;;
8458;SDS011;4266;48.816;9.154;2023-12-29T02:57:28;4.60;;;4.20;;
8458;SDS011;4266;48.816;9.154;2023-12-29T02:59:54;7.07;;;4.30;;
8458;SDS011;4266;48.816;9.154;2023-12-29T03:02:20;4.90;;;4.50;;
8458;SDS011;4266;48.816;9.154;2023-12-29T03:04:47;4.50;;;4.10;;
8458;SDS011;4266;48.816;9.154;2023-12-29T03:07:12;4.10;;;3.80;;
8458;SDS011;4266;48.816;9.154;2023-12-29T03:09:38;6.17;;;4.53;;
8458;SDS011;4266;48.816;9.154;2023-12-29T03:12:04;4.20;;;3.90;;
8458;SDS011;4266;48.816;9.154;2023-12-29T03:14:30;4.63;;;4.23;;
8458;SDS011;4266;48.816;9.154;2023-12-29T03:16:56;4.60;;;4.20;;
8458;SDS011;4266;48.816;9.154;2023-12-29T03:19:22;4.30;;;4.00;;
8458;SDS011;4266;48.816;9.154;2023-12-29T03:21:48;4.87;;;4.47;;
8458;SDS011;4266;48.816;9.154;2023-12-29T03:24:13;4.30;;;3.90;;
8458;SDS011;4266;48.816;9.154;2023-12-29T03:26:40;5.10;;;3.93;;
8458;SDS011;4266;48.816;9.154;2023-12-29T03:29:05;4.87;;;4.30;;
8458;SDS011;4266;48.816;9.154;2023-12-29T03:31:31;4.53;;;4.17;;
8458;SDS011;4266;48.816;9.154;2023-12-29T03:33:57;5.03;;;4.63;;
8458;SDS011;4266;48.816;9.154;2023-12-29T03:36:23;4.63;;;4.23;;
8458;SDS011;4266;48.816;9.154;2023-12-29T03:38:49;4.33;;;4.03;;
8458;SDS011;4266;48.816;9.154;2023-12-29T03:41:14;4.77;;;4.37;;
8458;SDS011;4266;48.816;9.154;2023-12-29T03:43:40;4.70;;;4.40;;
8458;SDS011;4266;48.816;9.154;2023-12-29T03:46:14;5.27;;;4.50;;
8458;SDS011;4266;48.816;9.154;2023-12-29T03:48:38;8.60;;;4.47;;
8458;SDS011;4266;48.816;9.154;2023-12-29T03:51:04;4.70;;;4.30;;
8458;SDS011;4266;48.816;9.154;2023-12-29T03:53:30;4.40;;;4.00;;
8458;SDS011;4266;48.816;9.154;2023-12-29T03:55:56;4.57;;;4.27;;
8458;SDS011;4266;48.816;9.154;2023-12-29T03:58:23;4.33;;;3.40;;
8458;SDS011;4266;48.816;9.154;2023-12-29T04:00:48;4.13;;;3.73;;
8458;SDS011;4266;48.816;9.154;2023-12-29T04:03:14;4.10;;;3.70;;
8458;SDS011;4266;48.816;9.154;2023-12-29T04:05:41;5.00;;;3.43;;
8458;SDS011;4266;48.816;9.154;2023-12-29T04:08:07;3.80;;;3.50;;
8458;SDS011;4266;48.816;9.154;2023-12-29T04:10:33;4.10;;;3.80;;
8458;SDS011;4266;48.816;9.154;2023-12-29T04:12:59;4.23;;;3.93;;
8458;SDS011;4266;48.816;9.154;2023-12-29T04:15:25;3.90;;;3.50;;
8458;SDS011;4266;48.816;9.154;2023-12-29T04:17:50;3.83;;;3.60;;
8458;SDS011;4266;48.816;9.154;2023-12-29T04:20:16;4.50;;;4.10;;
8458;SDS011;4266;48.816;9.154;2023-12-29T04:22:42;3.80;;;3.60;;
8458;SDS011;4266;48.816;9.154;2023-12-29T04:25:08;3.97;;;3.67;;
8458;SDS011;4266;48.816;9.154;2023-12-29T04:27:34;4.30;;;4.00;;
8458;SDS011;4266;48.816;9.154;2023-12-29T04:29:59;4.07;;;3.87;;
8458;SDS011;4266;48.816;9.154;2023-12-29T04:32:25;3.50;;;3.30;;
8458;SDS011;4266;48.816;9.154;2023-12-29T04:34:51;4.53;;;4.23;;
8458;SDS011;4266;48.816;9.154;2023-12-29T04:37:16;4.30;;;4.00;;
8458;SDS011;4266;48.816;9.154;2023-12-29T04:39:43;4.30;;;4.00;;
8458;SDS011;4266;48.816;9.154;2023-12-29T04:42:09;4.30;;;3.70;;
8458;SDS011;4266;48.816;9.154;2023-12-29T04:44:36;4.10;;;3.80;;
8458;SDS011;4266;48.816;9.154;2023-12-29T04:47:01;4.20;;;3.80;;
8458;SDS011;4266;48.816;9.154;2023-12-29T04:49:27;4.67;;;3.50;;
8458;SDS011;4266;48.816;9.154;2023-12-29T04:51:53;4.03;;;3.77;;
8458;SDS011;4266;48.816;9.154;2023-12-29T04:54:19;4.80;;;4.40;;
8458;SDS011;4266;48.816;9.154;2023-12-29T04:56:46;4.57;;;4.27;;
8458;SDS011;4266;48.816;9.154;2023-12-29T04:59:11;4.40;;;4.10;;
8458;SDS011;4266;48.816;9.154;2023-12-29T05:01:37;5.27;;;4.07;;
8458;SDS011;4266;48.816;9.154;2023-12-29T05:04:03;4.80;;;4.27;;
8458;SDS011;4266;48.816;9.154;2023-12-29T05:06:29;4.17;;;3.87;;
8458;SDS011;4266;48.816;9.154;2023-12-29T05:08:55;4.27;;;3.97;;
8458;SDS011;4266;48.816;9.154;2023-12-29T05:11:20;4.27;;;3.97;;
8458;SDS011;4266;48.816;9.154;2023-12-29T05:13:47;4.70;;;4.40;;
8458;SDS011;4266;48.816;9.154;2023-12-29T05:16:13;4.77;;;4.37;;
8458;SDS011;4266;48.816;9.154;2023-12-29T05:18:38;4.30;;;3.97;;
8458;SDS011;4266;48.816;9.154;2023-12-29T05:21:04;4.23;;;3.93;;
8458;SDS011;4266;48.816;9.154;2023-12-29T05:23:29;4.53;;;4.23;;
8458;SDS011;4266;48.816;9.154;2023-12-29T05:25:56;4.83;;;4.10;;
8458;SDS011;4266;48.816;9.154;2023-12-29T05:28:21;4.27;;;3.97;;
8458;SDS011;4266;48.816;9.154;2023-12-29T05:30:48;4.20;;;3.90;;
8458;SDS011;4266;48.816;9.154;2023-12-29T05:33:14;4.70;;;4.30;;
8458;SDS011;4266;48.816;9.154;2023-12-29T05:35:39;4.83;;;4.43;;
8458;SDS011;4266;48.816;9.154;2023-12-29T05:38:05;4.60;;;4.30;;
8458;SDS011;4266;48.816;9.154;2023-12-29T05:40:32;4.40;;;4.10;;
8458;SDS011;4266;48.816;9.154;2023-12-29T05:42:57;4.07;;;3.77;;
8458;SDS011;4266;48.816;9.154;2023-12-29T05:45:23;4.50;;;4.20;;
8458;SDS011;4266;48.816;9.154;2023-12-29T05:47:49;4.67;;;4.20;;
8458;SDS011;4266;48.816;9.154;2023-12-29T05:50:15;4.37;;;4.07;;
8458;SDS011;4266;48.816;9.154;2023-12-29T05:52:41;4.80;;;4.40;;
8458;SDS011;4266;48.816;9.154;2023-12-29T05:55:07;4.63;;;4.03;;
8458;SDS011;4266;48.816;9.154;2023-12-29T05:57:33;4.47;;;4.17;;
8458;SDS011;4266;48.816;9.154;2023-12-29T05:59:58;4.63;;;4.33;;
8458;SDS011;4266;48.816;9.154;2023-12-29T06:02:24;4.50;;;4.20;;
8458;SDS011;4266;48.816;9.154;2023-12-29T06:04:50;4.40;;;4.10;;
8458;SDS011;4266;48.816;9.154;2023-12-29T06:07:15;4.63;;;4.33;;
8458;SDS011;4266;48.816;9.154;2023-12-29T06:09:41;4.70;;;4.40;;
8458;SDS011;4266;48.816;9.154;2023-12-29T06:12:07;4.30;;;4.00;;
8458;SDS011;4266;48.816;9.154;2023-12-29T06:14:35;4.57;;;4.17;;
8458;SDS011;4266;48.816;9.154;2023-12-29T06:16:59;4.57;;;4.23;;
8458;SDS011;4266;48.816;9.154;2023-12-29T06:19:25;4.80;;;4.30;;
8458;SDS011;4266;48.816;9.154;2023-12-29T06:21:51;4.13;;;3.83;;
8458;SDS011;4266;48.816;9.154;2023-12-29T06:24:16;4.37;;;4.07;;
8458;SDS011;4266;48.816;9.154;2023-12-29T06:26:43;4.50;;;4.10;;
8458;SDS011;4266;48.816;9.154;2023-12-29T06:29:09;4.43;;;4.03;;
8458;SDS011;4266;48.816;9.154;2023-12-29T06:31:34;4.83;;;4.43;;
8458;SDS011;4266;48.816;9.154;2023-12-29T06:34:01;5.10;;;4.80;;
8458;SDS011;4266;48.816;9.154;2023-12-29T06:36:27;4.87;;;4.53;;
8458;SDS011;4266;48.816;9.154;2023-12-29T06:38:53;4.40;;;4.10;;
8458;SDS011;4266;48.816;9.154;2023-12-29T06:41:18;4.67;;;4.33;;
8458;SDS011;4266;48.816;9.154;2023-12-29T06:43:44;4.50;;;4.20;;
8458;SDS011;4266;48.816;9.154;2023-12-29T06:46:10;4.80;;;4.23;;
8458;SDS011;4266;48.816;9.154;2023-12-29T06:48:36;4.70;;;4.33;;
8458;SDS011;4266;48.816;9.154;2023-12-29T06:51:01;7.30;;;4.50;;
8458;SDS011;4266;48.816;9.154;2023-12-29T06:53:27;4.27;;;3.97;;
8458;SDS011;4266;48.816;9.154;2023-12-29T06:55:53;5.23;;;4.17;;
8458;SDS011;4266;48.816;9.154;2023-12-29T06:58:19;4.10;;;3.80;;
8458;SDS011;4266;48.816;9.154;2023-12-29T07:00:45;4.20;;;3.90;;
8458;SDS011;4266;48.816;9.154;2023-12-29T07:03:13;4.17;;;3.87;;
8458;SDS011;4266;48.816;9.154;2023-12-29T07:05:38;4.50;;;4.20;;
8458;SDS011;4266;48.816;9.154;2023-12-29T07:08:03;4.60;;;3.97;;
8458;SDS011;4266;48.816;9.154;2023-12-29T07:10:29;4.50;;;4.20;;
8458;SDS011;4266;48.816;9.154;2023-12-29T07:12:55;4.17;;;3.93;;
8458;SDS011;4266;48.816;9.154;2023-12-29T07:15:20;4.00;;;3.70;;
8458;SDS011;4266;48.816;9.154;2023-12-29T07:17:46;4.20;;;3.90;;
8458;SDS011;4266;48.816;9.154;2023-12-29T07:20:12;3.93;;;3.63;;
8458;SDS011;4266;48.816;9.154;2023-12-29T07:22:38;4.10;;;3.80;;
8458;SDS011;4266;48.816;9.154;2023-12-29T07:25:04;3.90;;;3.60;;
8458;SDS011;4266;48.816;9.154;2023-12-29T07:27:31;4.40;;;4.00;;
8458;SDS011;4266;48.816;9.154;2023-12-29T07:29:57;4.10;;;3.80;;
8458;SDS011;4266;48.816;9.154;2023-12-29T07:32:23;4.17;;;3.77;;
8458;SDS011;4266;48.816;9.154;2023-12-29T07:34:48;4.10;;;3.80;;
8458;SDS011;4266;48.816;9.154;2023-12-29T07:37:14;4.07;;;3.77;;
8458;SDS011;4266;48.816;9.154;2023-12-29T07:39:40;3.80;;;3.50;;
8458;SDS011;4266;48.816;9.154;2023-12-29T07:42:05;4.03;;;3.77;;
8458;SDS011;4266;48.816;9.154;2023-12-29T07:44:31;4.80;;;3.50;;
8458;SDS011;4266;48.816;9.154;2023-12-29T07:46:58;4.43;;;3.50;;
8458;SDS011;4266;48.816;9.154;2023-12-29T07:49:23;3.70;;;3.40;;
8458;SDS011;4266;48.816;9.154;2023-12-29T07:51:49;3.57;;;3.37;;
8458;SDS011;4266;48.816;9.154;2023-12-29T07:54:14;3.40;;;3.10;;
8458;SDS011;4266;48.816;9.154;2023-12-29T07:56:40;3.50;;;3.20;;
8458;SDS011;4266;48.816;9.154;2023-12-29T07:59:07;3.10;;;3.00;;
8458;SDS011;4266;48.816;9.154;2023-12-29T08:01:32;3.67;;;3.33;;
8458;SDS011;4266;48.816;9.154;2023-12-29T08:03:58;3.37;;;3.20;;
8458;SDS011;4266;48.816;9.154;2023-12-29T08:06:24;3.60;;;3.30;;
8458;SDS011;4266;48.816;9.154;2023-12-29T08:08:49;3.60;;;3.40;;
8458;SDS011;4266;48.816;9.154;2023-12-29T08:11:16;3.47;;;3.17;;
8458;SDS011;4266;48.816;9.154;2023-12-29T08:13:43;3.60;;;3.40;;
8458;SDS011;4266;48.816;9.154;2023-12-29T08:16:09;3.93;;;3.67;;
8458;SDS011;4266;48.816;9.154;2023-12-29T08:18:34;3.60;;;3.40;;
8458;SDS011;4266;48.816;9.154;2023-12-29T08:21:00;6.03;;;3.50;;
8458;SDS011;4266;48.816;9.154;2023-12-29T08:23:26;4.17;;;3.87;;
8458;SDS011;4266;48.816;9.154;2023-12-29T08:25:52;3.77;;;3.47;;
8458;SDS011;4266;48.816;9.154;2023-12-29T08:28:18;5.00;;;3.50;;
8458;SDS011;4266;48.816;9.154;2023-12-29T08:30:45;4.07;;;3.63;;
8458;SDS011;4266;48.816;9.154;2023-12-29T08:33:11;3.50;;;3.30;;
8458;SDS011;4266;48.816;9.154;2023-12-29T08:35:36;3.80;;;3.37;;
8458;SDS011;4266;48.816;9.154;2023-12-29T08:38:02;4.13;;;3.23;;
8458;SDS011;4266;48.816;9.154;2023-12-29T08:40:28;3.90;;;3.60;;
8458;SDS011;4266;48.816;9.154;2023-12-29T08:42:53;3.80;;;3.50;;
8458;SDS011;4266;48.816;9.154;2023-12-29T08:45:20;5.27;;;3.70;;
8458;SDS011;4266;48.816;9.154;2023-12-29T08:47:45;3.70;;;3.40;;
8458;SDS011;4266;48.816;9.154;2023-12-29T08:50:11;3.67;;;3.47;;
8458;SDS011;4266;48.816;9.154;2023-12-29T08:52:37;3.37;;;3.17;;
8458;SDS011;4266;48.816;9.154;2023-12-29T08:55:03;3.60;;;3.40;;
8458;SDS011;4266;48.816;9.154;2023-12-29T08:57:30;4.60;;;4.10;;
8458;SDS011;4266;48.816;9.154;2023-12-29T08:59:55;6.00;;;3.40;;
8458;SDS011;4266;48.816;9.154;2023-12-29T09:02:20;4.20;;;3.63;;
8458;SDS011;4266;48.816;9.154;2023-12-29T09:04:47;3.80;;;3.60;;
8458;SDS011;4266;48.816;9.154;2023-12-29T09:07:12;3.67;;;3.40;;
8458;SDS011;4266;48.816;9.154;2023-12-29T09:09:38;5.30;;;3.67;;
8458;SDS011;4266;48.816;9.154;2023-12-29T09:12:05;4.10;;;3.80;;
8458;SDS011;4266;48.816;9.154;2023-12-29T09:14:30;3.80;;;3.60;;
8458;SDS011;4266;48.816;9.154;2023-12-29T09:16:57;3.53;;;3.23;;
8458;SDS011;4266;48.816;9.154;2023-12-29T09:19:22;3.30;;;3.10;;
8458;SDS011;4266;48.816;9.154;2023-12-29T09:21:48;3.50;;;3.20;;
8458;SDS011;4266;48.816;9.154;2023-12-29T09:24:14;3.57;;;3.37;;
8458;SDS011;4266;48.816;9.154;2023-12-29T09:26:39;3.40;;;3.17;;
8458;SDS011;4266;48.816;9.154;2023-12-29T09:29:05;3.67;;;3.47;;
8458;SDS011;4266;48.816;9.154;2023-12-29T09:31:31;3.10;;;3.00;;
8458;SDS011;4266;48.816;9.154;2023-12-29T09:33:56;3.40;;;3.20;;
8458;SDS011;4266;48.816;9.154;2023-12-29T09:36:22;3.27;;;3.07;;
8458;SDS011;4266;48.816;9.154;2023-12-29T09:38:48;2.87;;;2.67;;
8458;SDS011;4266;48.816;9.154;2023-12-29T09:41:14;3.20;;;2.90;;
8458;SDS011;4266;48.816;9.154;2023-12-29T09:43:41;2.80;;;2.70;;
8458;SDS011;4266;48.816;9.154;2023-12-29T09:46:07;2.90;;;2.70;;
8458;SDS011;4266;48.816;9.154;2023-12-29T09:48:33;3.53;;;2.77;;
8458;SDS011;4266;48.816;9.154;2023-12-29T09:50:58;2.40;;;2.30;;
8458;SDS011;4266;48.816;9.154;2023-12-29T09:53:25;2.73;;;2.60;;
8458;SDS011;4266;48.816;9.154;2023-12-29T09:55:51;2.53;;;2.43;;
8458;SDS011;4266;48.816;9.154;2023-12-29T09:58:16;2.73;;;2.53;;
8458;SDS011;4266;48.816;9.154;2023-12-29T10:00:42;2.50;;;2.40;;
8458;SDS011;4266;48.816;9.154;2023-12-29T10:03:09;2.60;;;2.50;;
8458;SDS011;4266;48.816;9.154;2023-12-29T10:05:34;2.43;;;2.27;;
8458;SDS011;4266;48.816;9.154;2023-12-29T10:08:01;2.87;;;2.70;;
8458;SDS011;4266;48.816;9.154;2023-12-29T10:10:27;2.40;;;2.30;;
8458;SDS011;4266;48.816;9.154;2023-12-29T10:12:53;2.75;;;2.55;;
8458;SDS011;4266;48.816;9.154;2023-12-29T10:15:21;2.20;;;2.10;;
8458;SDS011;4266;48.816;9.154;2023-12-29T10:17:52;2.53;;;2.37;;
8458;SDS011;4266;48.816;9.154;2023-12-29T10:20:23;2.53;;;2.42;;
8458;SDS011;4266;48.816;9.154;2023-12-29T10:23:08;2.45;;;2.35;;
8458;SDS011;4266;48.816;9.154;2023-12-29T10:25:42;2.30;;;2.20;;
8458;SDS011;4266;48.816;9.154;2023-12-29T10:28:09;2.80;;;2.60;;
8458;SDS011;4266;48.816;9.154;2023-12-29T10:30:34;2.40;;;2.30;;
8458;SDS011;4266;48.816;9.154;2023-12-29T10:33:00;2.40;;;2.30;;
8458;SDS011;4266;48.816;9.154;2023-12-29T10:35:26;2.40;;;2.30;;
8458;SDS011;4266;48.816;9.154;2023-12-29T10:37:51;2.12;;;2.00;;
8458;SDS011;4266;48.816;9.154;2023-12-29T10:40:18;2.40;;;2.30;;
8458;SDS011;4266;48.816;9.154;2023-12-29T10:42:53;2.10;;;2.00;;
8458;SDS011;4266;48.816;9.154;2023-12-29T10:45:19;2.33;;;2.22;;
8458;SDS011;4266;48.816;9.154;2023-12-29T10:47:45;1.92;;;1.83;;
8458;SDS011;4266;48.816;9.154;2023-12-29T10:50:11;2.22;;;2.08;;
8458;SDS011;4266;48.816;9.154;2023-12-29T10:52:37;2.03;;;1.92;;
8458;SDS011;4266;48.816;9.154;2023-12-29T10:55:05;1.83;;;1.73;;
8458;SDS011;4266;48.816;9.154;2023-12-29T10:57:33;1.87;;;1.77;;
8458;SDS011;4266;48.816;9.154;2023-12-29T10:59:58;1.80;;;1.70;;
8458;SDS011;4266;48.816;9.154;2023-12-29T11:02:24;2.33;;;1.80;;
8458;SDS011;4266;48.816;9.154;2023-12-29T11:04:50;1.87;;;1.77;;
8458;SDS011;4266;48.816;9.154;2023-12-29T11:07:15;2.10;;;2.00;;
8458;SDS011;4266;48.816;9.154;2023-12-29T11:09:41;1.70;;;1.60;;
8458;SDS011;4266;48.816;9.154;2023-12-29T11:12:07;1.85;;;1.75;;
8458;SDS011;4266;48.816;9.154;2023-12-29T11:14:32;1.60;;;1.60;;
8458;SDS011;4266;48.816;9.154;2023-12-29T11:16:59;1.80;;;1.70;;
8458;SDS011;4266;48.816;9.154;2023-12-29T11:19:24;1.83;;;1.73;;
8458;SDS011;4266;48.816;9.154;2023-12-29T11:21:51;1.40;;;1.40;;
8458;SDS011;4266;48.816;9.154;2023-12-29T11:24:17;1.70;;;1.60;;
8458;SDS011;4266;48.816;9.154;2023-12-29T11:26:43;2.00;;;1.90;;
8458;SDS011;4266;48.816;9.154;2023-12-29T11:29:09;1.70;;;1.60;;
8458;SDS011;4266;48.816;9.154;2023-12-29T11:31:35;2.67;;;2.10;;
8458;SDS011;4266;48.816;9.154;2023-12-29T11:34:03;2.47;;;1.90;;
8458;SDS011;4266;48.816;9.154;2023-12-29T11:36:29;1.90;;;1.80;;
8458;SDS011;4266;48.816;9.154;2023-12-29T11:38:59;1.77;;;1.67;;
8458;SDS011;4266;48.816;9.154;2023-12-29T11:41:25;2.15;;;1.95;;
8458;SDS011;4266;48.816;9.154;2023-12-29T11:43:56;1.80;;;1.70;;
8458;SDS011;4266;48.816;9.154;2023-12-29T11:46:43;1.70;;;1.60;;
8458;SDS011;4266;48.816;9.154;2023-12-29T11:49:07;1.55;;;1.45;;
8458;SDS011;4266;48.816;9.154;2023-12-29T11:51:34;1.58;;;1.58;;
8458;SDS011;4266;48.816;9.154;2023-12-29T11:54:01;1.42;;;1.42;;
8458;SDS011;4266;48.816;9.154;2023-12-29T11:56:31;1.95;;;1.90;;
8458;SDS011;4266;48.816;9.154;2023-12-29T11:58:56;2.37;;;1.52;;
8458;SDS011;4266;48.816;9.154;2023-12-29T12:01:33;1.40;;;1.40;;
8458;SDS011;4266;48.816;9.154;2023-12-29T12:03:59;2.55;;;1.77;;
8458;SDS011;4266;48.816;9.154;2023-12-29T12:11:41;2.15;;;2.05;;
8458;SDS011;4266;48.816;9.154;2023-12-29T12:14:07;2.85;;;2.10;;
8458;SDS011;4266;48.816;9.154;2023-12-29T12:19:15;1.70;;;1.60;;
8458;SDS011;4266;48.816;9.154;2023-12-29T12:21:41;1.83;;;1.73;;
8458;SDS011;4266;48.816;9.154;2023-12-29T12:24:08;1.83;;;1.73;;
8458;SDS011;4266;48.816;9.154;2023-12-29T12:26:34;1.75;;;1.60;;
8458;SDS011;4266;48.816;9.154;2023-12-29T12:29:00;1.80;;;1.70;;
8458;SDS011;4266;48.816;9.154;2023-12-29T12:31:26;1.90;;;1.80;;
8458;SDS011;4266;48.816;9.154;2023-12-29T12:33:54;1.90;;;1.90;;
8458;SDS011;4266;48.816;9.154;2023-12-29T12:36:20;1.62;;;1.60;;
8458;SDS011;4266;48.816;9.154;2023-12-29T12:38:51;2.20;;;2.10;;
8458;SDS011;4266;48.816;9.154;2023-12-29T12:41:17;2.20;;;2.08;;
8458;SDS011;4266;48.816;9.154;2023-12-29T12:43:45;2.20;;;2.10;;
8458;SDS011;4266;48.816;9.154;2023-12-29T12:46:09;2.00;;;1.90;;
8458;SDS011;4266;48.816;9.154;2023-12-29T12:48:36;1.73;;;1.62;;
8458;SDS011;4266;48.816;9.154;2023-12-29T12:51:00;1.80;;;1.70;;
8458;SDS011;4266;48.816;9.154;2023-12-29T12:53:26;1.73;;;1.62;;
8458;SDS011;4266;48.816;9.154;2023-12-29T12:55:52;1.98;;;1.85;;
8458;SDS011;4266;48.816;9.154;2023-12-29T12:58:18;1.90;;;1.80;;
8458;SDS011;4266;48.816;9.154;2023-12-29T13:00:44;2.75;;;1.90;;
8458;SDS011;4266;48.816;9.154;2023-12-29T13:03:09;2.35;;;2.00;;
8458;SDS011;4266;48.816;9.154;2023-12-29T13:05:36;2.00;;;1.90;;
8458;SDS011;4266;48.816;9.154;2023-12-29T13:08:02;2.15;;;2.03;;
8458;SDS011;4266;48.816;9.154;2023-12-29T13:10:27;2.17;;;2.08;;
8458;SDS011;4266;48.816;9.154;2023-12-29T13:12:53;2.33;;;2.22;;
8458;SDS011;4266;48.816;9.154;2023-12-29T13:15:20;2.10;;;2.00;;
8458;SDS011;4266;48.816;9.154;2023-12-29T13:17:51;2.55;;;2.35;;
8458;SDS011;4266;48.816;9.154;2023-12-29T13:20:16;2.42;;;2.33;;
8458;SDS011;4266;48.816;9.154;2023-12-29T13:22:42;2.40;;;2.20;;
8458;SDS011;4266;48.816;9.154;2023-12-29T13:25:08;2.20;;;2.10;;
8458;SDS011;4266;48.816;9.154;2023-12-29T13:27:36;2.30;;;2.20;;
8458;SDS011;4266;48.816;9.154;2023-12-29T13:29:59;3.47;;;2.30;;
8458;SDS011;4266;48.816;9.154;2023-12-29T13:32:25;2.73;;;2.53;;
8458;SDS011;4266;48.816;9.154;2023-12-29T13:34:54;2.30;;;2.20;;
8458;SDS011;4266;48.816;9.154;2023-12-29T13:37:25;2.97;;;2.87;;
8458;SDS011;4266;48.816;9.154;2023-12-29T13:39:52;2.67;;;2.23;;
8458;SDS011;4266;48.816;9.154;2023-12-29T13:42:16;2.33;;;2.23;;
8458;SDS011;4266;48.816;9.154;2023-12-29T13:44:42;3.40;;;3.20;;
8458;SDS011;4266;48.816;9.154;2023-12-29T13:47:08;2.80;;;2.70;;
8458;SDS011;4266;48.816;9.154;2023-12-29T13:49:34;3.60;;;3.40;;
8458;SDS011;4266;48.816;9.154;2023-12-29T13:52:00;3.50;;;3.30;;
8458;SDS011;4266;48.816;9.154;2023-12-29T13:54:27;5.17;;;3.73;;
8458;SDS011;4266;48.816;9.154;2023-12-29T13:56:53;3.83;;;3.63;;
8458;SDS011;4266;48.816;9.154;2023-12-29T13:59:28;2.40;;;2.30;;
8458;SDS011;4266;48.816;9.154;2023-12-29T14:01:45;2.83;;;2.73;;
8458;SDS011;4266;48.816;9.154;2023-12-29T14:04:11;2.47;;;2.37;;
8458;SDS011;4266;48.816;9.154;2023-12-29T14:06:39;2.50;;;2.30;;
8458;SDS011;4266;48.816;9.154;2023-12-29T14:09:03;2.47;;;2.37;;
8458;SDS011;4266;48.816;9.154;2023-12-29T14:11:29;2.50;;;2.40;;
8458;SDS011;4266;48.816;9.154;2023-12-29T14:13:55;2.90;;;2.80;;
8458;SDS011;4266;48.816;9.154;2023-12-29T14:16:21;2.30;;;2.20;;
8458;SDS011;4266;48.816;9.154;2023-12-29T14:18:55;2.57;;;2.47;;
8458;SDS011;4266;48.816;9.154;2023-12-29T14:21:23;2.70;;;2.50;;
8458;SDS011;4266;48.816;9.154;2023-12-29T14:23:58;2.97;;;2.87;;
8458;SDS011;4266;48.816;9.154;2023-12-29T14:26:41;2.80;;;2.70;;
8458;SDS011;4266;48.816;9.154;2023-12-29T14:29:08;2.50;;;2.30;;
8458;SDS011;4266;48.816;9.154;2023-12-29T14:31:34;2.97;;;2.77;;
8458;SDS011;4266;48.816;9.154;2023-12-29T14:34:00;2.60;;;2.50;;
8458;SDS011;4266;48.816;9.154;2023-12-29T14:36:26;2.80;;;2.60;;
8458;SDS011;4266;48.816;9.154;2023-12-29T14:38:52;2.57;;;2.47;;
8458;SDS011;4266;48.816;9.154;2023-12-29T14:41:18;2.33;;;2.23;;
8458;SDS011;4266;48.816;9.154;2023-12-29T14:43:43;2.30;;;2.20;;
8458;SDS011;4266;48.816;9.154;2023-12-29T14:46:09;2.60;;;2.50;;
8458;SDS011;4266;48.816;9.154;2023-12-29T14:48:35;2.70;;;2.50;;
8458;SDS011;4266;48.816;9.154;2023-12-29T14:51:01;2.90;;;2.60;;
8458;SDS011;4266;48.816;9.154;2023-12-29T14:53:27;2.87;;;2.53;;
8458;SDS011;4266;48.816;9.154;2023-12-29T14:55:53;2.90;;;2.37;;
8458;SDS011;4266;48.816;9.154;2023-12-29T14:58:19;2.50;;;2.40;;
8458;SDS011;4266;48.816;9.154;2023-12-29T15:00:45;2.60;;;2.50;;
8458;SDS011;4266;48.816;9.154;2023-12-29T15:03:12;2.60;;;2.50;;
8458;SDS011;4266;48.816;9.154;2023-12-29T15:05:37;3.23;;;2.97;;
8458;SDS011;4266;48.816;9.154;2023-12-29T15:08:03;2.37;;;2.27;;
8458;SDS011;4266;48.816;9.154;2023-12-29T15:10:29;3.10;;;2.90;;
8458;SDS011;4266;48.816;9.154;2023-12-29T15:12:55;2.77;;;2.57;;
8458;SDS011;4266;48.816;9.154;2023-12-29T15:15:22;3.00;;;2.80;;
8458;SDS011;4266;48.816;9.154;2023-12-29T15:17:47;2.97;;;2.77;;